Terminal Aerodrome Forecast
Issued by NWS

Home | Current Version | Previous Version | Graphics & Text | Print | Product List | Glossary On
Versions: 1 2 3 4 5 6 7 8 9 10 11 12 13 14 15 16 17 18 19 20 21 22 23 24 25
054
FTUS43 KLOT 072333
TAFDPA
TAF
KDPA 072333Z 0800/0824 25010KT P6SM BKN200
     FM081000 29009KT P6SM -SHSN OVC025
      TEMPO 0810/0814 2SM -SHSN OVC015
     FM081500 29011KT P6SM -SHSN OVC020=

USA.gov is the U.S. government's official web portal to all federal, state and local government web resources and services.